Time;durP1;ratioP1;P1;durP2;ratioP2;P2;SDS_P1;SDS_P2;PMS_P1;PMS_P2;Temp;Humidity;BMP_temperature;BMP_pressure;BME280_temperature;BME280_humidity;BME280_pressure;Samples;Min_cycle;Max_cycle;Signal;HPM_P1;HPM_P2
2022/03/09 00:02:02;;;;;;;0.30;0.10;;;-1.70;95.80;;;;;;5055359;28;20299;-84
2022/03/09 00:04:29;;;;;;;0.30;0.10;;;-1.80;96.00;;;;;;5062057;28;20202;-87
2022/03/09 00:06:56;;;;;;;0.30;0.10;;;-1.90;95.90;;;;;;5058023;28;20820;-85
2022/03/09 00:09:23;;;;;;;0.30;0.10;;;-2.00;96.10;;;;;;5056224;28;20194;-84
2022/03/09 00:11:51;;;;;;;0.30;0.10;;;-2.00;96.50;;;;;;5052754;28;20216;-84
2022/03/09 00:14:18;;;;;;;0.30;0.20;;;-2.10;97.20;;;;;;5051558;28;20257;-84
2022/03/09 00:16:45;;;;;;;0.30;0.10;;;-2.20;98.10;;;;;;5052302;28;20925;-85
2022/03/09 00:19:12;;;;;;;0.30;0.10;;;-2.30;98.70;;;;;;5055327;28;20219;-85
2022/03/09 00:21:39;;;;;;;1.63;0.52;;;-2.40;98.90;;;;;;5057796;28;20198;-84
2022/03/09 00:24:07;;;;;;;0.30;0.10;;;-2.40;98.80;;;;;;5064391;28;20202;-84
2022/03/09 00:26:34;;;;;;;0.75;0.75;;;-2.40;98.60;;;;;;5061945;28;20291;-83
2022/03/09 00:29:02;;;;;;;0.30;0.10;;;-2.50;98.50;;;;;;5061594;28;20211;-85
2022/03/09 00:31:29;;;;;;;0.30;0.10;;;-2.50;98.50;;;;;;5060981;28;20616;-85
2022/03/09 00:33:56;;;;;;;0.30;0.10;;;-2.60;98.50;;;;;;5053463;28;20641;-83
2022/03/09 00:36:23;;;;;;;0.30;0.10;;;-2.50;98.40;;;;;;5061833;28;20199;-83
2022/03/09 00:38:50;;;;;;;0.30;0.10;;;-2.60;98.20;;;;;;5057920;28;20260;-83
2022/03/09 00:41:17;;;;;;;0.63;0.63;;;-2.60;98.30;;;;;;5051103;28;20257;-86
2022/03/09 00:43:44;;;;;;;0.30;0.10;;;-2.70;98.30;;;;;;5050871;28;20202;-83
2022/03/09 00:46:13;;;;;;;0.30;0.17;;;-2.80;98.40;;;;;;5053179;28;20870;-85
2022/03/09 00:48:40;;;;;;;0.30;0.10;;;-2.80;98.60;;;;;;5056001;28;20626;-85
2022/03/09 00:51:07;;;;;;;0.30;0.20;;;-2.90;98.80;;;;;;5057216;28;20655;-85
2022/03/09 00:53:34;;;;;;;0.30;0.10;;;-3.00;99.10;;;;;;5050075;28;20210;-84
2022/03/09 00:56:01;;;;;;;0.50;0.43;;;-3.00;99.40;;;;;;5055436;28;20199;-85
2022/03/09 00:58:28;;;;;;;1.20;1.20;;;-2.90;99.50;;;;;;5050237;28;20260;-86
2022/03/09 01:00:55;;;;;;;0.30;0.20;;;-2.80;99.30;;;;;;5053606;28;20873;-87
2022/03/09 01:03:24;;;;;;;0.30;0.10;;;-2.90;99.30;;;;;;5051501;28;20202;-84
2022/03/09 01:05:51;;;;;;;0.30;0.10;;;-2.90;99.50;;;;;;5052828;28;20198;-87
2022/03/09 01:08:17;;;;;;;2.15;2.05;;;-3.00;99.50;;;;;;5052175;28;20280;-85
2022/03/09 01:10:44;;;;;;;0.30;0.10;;;-3.00;99.80;;;;;;5054812;28;20203;-87
2022/03/09 01:13:11;;;;;;;0.30;0.20;;;-3.10;99.90;;;;;;5058294;28;20266;-84
2022/03/09 01:15:39;;;;;;;0.30;0.10;;;-3.10;99.90;;;;;;5058947;28;20628;-86
2022/03/09 01:18:06;;;;;;;0.30;0.10;;;-3.10;99.90;;;;;;5052346;28;20341;-84
2022/03/09 01:20:34;;;;;;;0.30;0.10;;;-3.00;99.90;;;;;;5052987;28;20260;-85
2022/03/09 01:23:02;;;;;;;0.30;0.10;;;-2.90;99.90;;;;;;5054833;28;20202;-84
2022/03/09 01:25:29;;;;;;;0.30;0.10;;;-2.90;99.90;;;;;;5063111;28;20240;-84
2022/03/09 01:27:56;;;;;;;0.30;0.10;;;-3.00;99.90;;;;;;5069642;28;20197;-85
2022/03/09 01:30:23;;;;;;;0.30;0.10;;;-3.00;99.90;;;;;;5054451;28;20244;-85
2022/03/09 01:32:51;;;;;;;0.30;0.10;;;-3.00;99.90;;;;;;5060133;28;20246;-84
2022/03/09 01:35:19;;;;;;;0.30;0.10;;;-3.00;99.90;;;;;;5054453;28;20601;-84
2022/03/09 01:37:47;;;;;;;0.30;0.10;;;-3.00;99.90;;;;;;5052551;28;20886;-85
2022/03/09 01:40:15;;;;;;;0.30;0.20;;;-3.10;99.90;;;;;;5052589;28;20240;-85
2022/03/09 01:42:42;;;;;;;0.30;0.20;;;-3.10;99.90;;;;;;5054111;28;20268;-86
2022/03/09 01:45:12;;;;;;;0.30;0.10;;;-3.10;99.90;;;;;;5053579;28;20251;-87
2022/03/09 01:47:39;;;;;;;0.30;0.10;;;-3.20;99.90;;;;;;5052064;28;20262;-85
2022/03/09 01:50:08;;;;;;;0.30;0.10;;;-3.20;99.90;;;;;;5050791;28;20985;-86
2022/03/09 01:52:36;;;;;;;0.30;0.10;;;-3.10;99.90;;;;;;5050022;28;20210;-86
2022/03/09 01:55:05;;;;;;;0.30;0.10;;;-3.20;99.90;;;;;;5050806;28;20218;-86
2022/03/09 01:57:33;;;;;;;0.30;0.22;;;-3.30;99.90;;;;;;5057910;28;20280;-85
2022/03/09 02:00:01;;;;;;;0.30;0.20;;;-3.30;99.90;;;;;;5053648;28;20211;-84
2022/03/09 02:02:28;;;;;;;0.30;0.20;;;-3.20;99.90;;;;;;5049951;28;20657;-85
2022/03/09 02:04:55;;;;;;;0.30;0.10;;;-3.30;99.90;;;;;;5052520;28;20244;-85
2022/03/09 02:09:41;;;;;;;0.30;0.10;;;-3.30;99.90;;;;;;5057222;28;20197;-86
2022/03/09 02:10:11;;;;;;;0.30;0.22;;;-3.20;99.90;;;;;;5052520;28;20198;-84
2022/03/09 02:12:38;;;;;;;0.30;0.10;;;-3.20;99.90;;;;;;5052180;28;20677;-86
2022/03/09 02:15:07;;;;;;;0.30;0.10;;;-3.20;99.90;;;;;;5053814;28;20637;-85
2022/03/09 02:17:34;;;;;;;0.30;0.20;;;-3.10;99.90;;;;;;5058935;28;20225;-86
2022/03/09 02:20:01;;;;;;;1.00;0.85;;;-3.10;99.90;;;;;;5055952;28;20206;-85
2022/03/09 02:22:32;;;;;;;0.30;0.17;;;-3.20;99.90;;;;;;5057867;28;20202;-84
2022/03/09 02:25:00;;;;;;;1.50;1.40;;;-3.20;99.90;;;;;;5071310;28;20201;-84
2022/03/09 02:27:27;;;;;;;0.30;0.10;;;-3.20;99.90;;;;;;5066572;28;20198;-86
2022/03/09 02:29:56;;;;;;;1.23;1.17;;;-3.20;99.90;;;;;;5062027;28;20198;-83
2022/03/09 02:32:24;;;;;;;0.30;0.10;;;-3.10;99.90;;;;;;5059685;28;20244;-86
2022/03/09 02:34:51;;;;;;;0.30;0.10;;;-3.20;99.90;;;;;;5057068;28;20220;-85
2022/03/09 02:37:18;;;;;;;0.65;0.65;;;-3.10;99.90;;;;;;5057536;28;20634;-83
2022/03/09 02:39:47;;;;;;;0.30;0.10;;;-3.00;99.90;;;;;;5059128;28;20726;-85
2022/03/09 02:42:14;;;;;;;0.30;0.10;;;-3.00;99.90;;;;;;5058867;28;20954;-85
2022/03/09 02:44:41;;;;;;;0.30;0.10;;;-3.10;99.90;;;;;;5057531;28;20210;-85
2022/03/09 02:47:08;;;;;;;0.30;0.20;;;-3.10;99.90;;;;;;5060010;28;20194;-84
2022/03/09 02:49:35;;;;;;;0.30;0.10;;;-3.10;99.90;;;;;;5057296;28;20332;-86
2022/03/09 02:52:03;;;;;;;0.63;0.63;;;-3.10;99.90;;;;;;5055674;28;20716;-84
2022/03/09 02:54:30;;;;;;;0.40;0.40;;;-3.20;99.90;;;;;;5057186;28;20731;-83
2022/03/09 02:56:58;;;;;;;0.30;0.10;;;-3.20;99.90;;;;;;5053216;28;20229;-86
2022/03/09 02:59:25;;;;;;;0.30;0.10;;;-3.10;99.90;;;;;;5057494;28;20198;-84
2022/03/09 03:01:52;;;;;;;0.30;0.10;;;-3.10;99.90;;;;;;5062249;28;20213;-85
2022/03/09 03:04:19;;;;;;;0.30;0.10;;;-3.20;99.90;;;;;;5059345;28;20201;-87
2022/03/09 03:06:46;;;;;;;0.50;0.45;;;-3.30;99.90;;;;;;5057538;28;20770;-86
2022/03/09 03:09:13;;;;;;;0.30;0.10;;;-3.30;99.90;;;;;;5059867;28;20268;-87
2022/03/09 03:11:40;;;;;;;2.58;2.38;;;-3.30;99.90;;;;;;5055750;28;20800;-87
2022/03/09 03:14:08;;;;;;;0.30;0.10;;;-3.30;99.90;;;;;;5049811;28;20206;-85
2022/03/09 03:16:35;;;;;;;0.40;0.30;;;-3.40;99.90;;;;;;5049451;28;20243;-86
2022/03/09 03:19:02;;;;;;;0.30;0.10;;;-3.40;99.90;;;;;;5053529;28;20769;-87
2022/03/09 03:21:29;;;;;;;0.30;0.10;;;-3.40;99.90;;;;;;5053687;28;20252;-84
2022/03/09 03:23:56;;;;;;;0.30;0.20;;;-3.50;99.90;;;;;;5058488;28;20202;-85
2022/03/09 03:26:28;;;;;;;0.30;0.10;;;-3.40;99.90;;;;;;5061797;28;20655;-87
2022/03/09 03:28:55;;;;;;;1.85;0.95;;;-3.40;99.90;;;;;;5056675;28;20255;-87
2022/03/09 03:31:24;;;;;;;0.30;0.20;;;-3.50;99.90;;;;;;5051281;28;20202;-86
2022/03/09 03:33:51;;;;;;;0.30;0.10;;;-3.50;99.90;;;;;;5056925;28;20203;-86
2022/03/09 03:36:18;;;;;;;0.30;0.10;;;-3.60;99.90;;;;;;5054681;28;20245;-84
2022/03/09 03:38:46;;;;;;;0.30;0.10;;;-3.60;99.90;;;;;;5054027;28;20222;-87
2022/03/09 03:41:12;;;;;;;0.30;0.20;;;-3.60;99.90;;;;;;5063513;28;20202;-86
2022/03/09 03:43:40;;;;;;;0.30;0.10;;;-3.60;99.90;;;;;;5053856;28;20552;-86
2022/03/09 03:46:07;;;;;;;0.30;0.20;;;-3.70;99.90;;;;;;5053195;28;20209;-86
2022/03/09 03:48:35;;;;;;;0.30;0.10;;;-3.70;99.90;;;;;;5053292;28;20279;-86
2022/03/09 03:51:02;;;;;;;0.30;0.20;;;-3.80;99.90;;;;;;5054825;28;20197;-83
2022/03/09 03:53:29;;;;;;;4.97;1.20;;;-3.90;99.90;;;;;;5056119;28;20256;-84
2022/03/09 03:55:56;;;;;;;0.30;0.20;;;-3.90;99.90;;;;;;5050737;28;20280;-84
2022/03/09 03:58:23;;;;;;;0.30;0.10;;;-3.80;99.90;;;;;;5050446;28;20311;-84
2022/03/09 04:00:50;;;;;;;0.30;0.20;;;-3.80;99.90;;;;;;5052834;28;20221;-87
2022/03/09 04:03:17;;;;;;;0.30;0.10;;;-3.90;99.90;;;;;;5058535;28;20202;-84
2022/03/09 04:05:45;;;;;;;3.15;2.88;;;-3.90;99.90;;;;;;5056593;28;20248;-84
2022/03/09 04:08:12;;;;;;;0.30;0.20;;;-4.00;99.90;;;;;;5054762;28;20226;-84
2022/03/09 04:10:39;;;;;;;0.80;0.77;;;-4.00;99.90;;;;;;5054043;28;20203;-84
2022/03/09 04:13:06;;;;;;;0.40;0.30;;;-4.00;99.90;;;;;;5057341;28;20216;-83
2022/03/09 04:15:33;;;;;;;0.30;0.10;;;-3.90;99.90;;;;;;5053449;28;20206;-83
2022/03/09 04:18:00;;;;;;;0.30;0.10;;;-3.90;99.90;;;;;;5061904;28;20225;-85
2022/03/09 04:20:28;;;;;;;0.30;0.10;;;-3.80;99.90;;;;;;5057269;28;20207;-82
2022/03/09 04:22:56;;;;;;;0.30;0.10;;;-3.70;99.90;;;;;;5054101;28;20256;-84
2022/03/09 04:25:23;;;;;;;1.45;1.45;;;-3.70;99.90;;;;;;5055662;28;20259;-85
2022/03/09 04:27:50;;;;;;;0.30;0.10;;;-3.70;99.90;;;;;;5057084;28;20665;-83
2022/03/09 04:30:17;;;;;;;0.30;0.10;;;-3.80;99.90;;;;;;5052811;28;20260;-83
2022/03/09 04:32:44;;;;;;;0.30;0.10;;;-3.80;99.90;;;;;;5053413;28;20202;-82
2022/03/09 04:35:11;;;;;;;0.30;0.10;;;-3.80;99.90;;;;;;5060162;28;20710;-86
2022/03/09 04:37:38;;;;;;;0.30;0.10;;;-3.90;99.90;;;;;;5059535;28;20675;-83
2022/03/09 04:40:08;;;;;;;0.65;0.65;;;-4.00;99.90;;;;;;5053097;28;20259;-85
2022/03/09 04:42:35;;;;;;;0.30;0.10;;;-4.00;99.90;;;;;;5059644;28;20256;-83
2022/03/09 04:45:02;;;;;;;0.30;0.10;;;-4.00;99.90;;;;;;5051682;28;20205;-83
2022/03/09 04:47:29;;;;;;;0.30;0.10;;;-3.90;99.90;;;;;;5065706;28;20201;-82
2022/03/09 04:49:56;;;;;;;0.30;0.10;;;-3.70;99.90;;;;;;5061198;28;20285;-83
2022/03/09 04:52:23;;;;;;;0.85;0.80;;;-3.60;99.90;;;;;;5052080;28;20202;-86
2022/03/09 04:54:50;;;;;;;0.30;0.10;;;-3.50;99.90;;;;;;5051808;28;20374;-85
2022/03/09 04:57:19;;;;;;;0.30;0.10;;;-3.50;99.90;;;;;;5050248;28;20334;-83
2022/03/09 04:59:46;;;;;;;0.30;0.10;;;-3.60;99.90;;;;;;5049514;28;20226;-83
2022/03/09 05:02:13;;;;;;;0.30;0.10;;;-3.60;99.90;;;;;;5052090;28;20205;-84
2022/03/09 05:04:40;;;;;;;0.30;0.17;;;-3.60;99.90;;;;;;5052573;28;20257;-84
2022/03/09 05:07:07;;;;;;;0.30;0.10;;;-3.70;99.90;;;;;;5049889;28;20203;-86
2022/03/09 05:09:34;;;;;;;0.30;0.10;;;-3.60;99.90;;;;;;5051683;28;20206;-84
2022/03/09 05:12:02;;;;;;;0.30;0.10;;;-3.60;99.90;;;;;;5057459;28;20193;-83
2022/03/09 05:14:30;;;;;;;0.30;0.20;;;-3.70;99.90;;;;;;5052229;28;20199;-83
2022/03/09 05:16:57;;;;;;;0.30;0.10;;;-3.70;99.90;;;;;;5054595;28;20287;-84
2022/03/09 05:19:24;;;;;;;0.30;0.10;;;-3.90;99.90;;;;;;5067482;28;20229;-84
2022/03/09 05:21:51;;;;;;;0.30;0.10;;;-4.00;99.90;;;;;;5063161;28;20677;-83
2022/03/09 05:24:18;;;;;;;0.30;0.20;;;-4.10;99.90;;;;;;5054653;28;20263;-85
2022/03/09 05:26:46;;;;;;;0.30;0.10;;;-4.10;99.90;;;;;;5062446;28;20272;-84
2022/03/09 05:29:14;;;;;;;0.30;0.20;;;-4.10;99.90;;;;;;5057521;28;20787;-83
2022/03/09 05:31:44;;;;;;;0.30;0.10;;;-4.10;99.90;;;;;;5060487;28;20203;-85
2022/03/09 05:34:11;;;;;;;0.30;0.10;;;-4.10;99.90;;;;;;5062266;28;20206;-86
2022/03/09 05:36:38;;;;;;;0.30;0.10;;;-4.10;99.90;;;;;;5057468;28;20612;-84
2022/03/09 05:39:05;;;;;;;0.40;0.30;;;-4.10;99.90;;;;;;5055715;28;20615;-84
2022/03/09 05:41:34;;;;;;;0.30;0.10;;;-4.10;99.90;;;;;;5054319;28;20279;-83
2022/03/09 05:44:02;;;;;;;0.30;0.20;;;-4.20;99.90;;;;;;5058755;28;20247;-84
2022/03/09 05:46:30;;;;;;;0.30;0.10;;;-4.20;99.90;;;;;;5067943;28;20204;-83
2022/03/09 05:48:58;;;;;;;0.30;0.10;;;-4.10;99.90;;;;;;5065372;28;20210;-82
2022/03/09 05:51:25;;;;;;;0.40;0.20;;;-4.10;99.90;;;;;;5077062;28;20537;-83
2022/03/09 05:53:53;;;;;;;0.30;0.20;;;-4.10;99.90;;;;;;5058999;28;20193;-83
2022/03/09 05:56:20;;;;;;;0.30;0.10;;;-4.00;99.90;;;;;;5061895;28;20260;-83
2022/03/09 05:58:47;;;;;;;0.30;0.10;;;-3.90;99.90;;;;;;5065476;28;20840;-85
2022/03/09 06:01:13;;;;;;;0.30;0.10;;;-3.90;99.90;;;;;;5049550;28;20592;-83
2022/03/09 06:03:40;;;;;;;0.30;0.10;;;-3.70;99.90;;;;;;5051310;28;20207;-85
2022/03/09 06:06:09;;;;;;;0.65;0.65;;;-3.70;99.90;;;;;;5056232;28;20824;-84
2022/03/09 06:08:36;;;;;;;0.30;0.10;;;-3.60;99.90;;;;;;5069652;28;20901;-84
2022/03/09 06:11:03;;;;;;;0.40;0.30;;;-3.50;99.90;;;;;;5063225;28;20205;-84
2022/03/09 06:13:30;;;;;;;0.30;0.10;;;-3.40;99.90;;;;;;5062613;28;20197;-83
2022/03/09 06:15:56;;;;;;;0.30;0.10;;;-3.30;99.90;;;;;;5065208;28;20315;-84
2022/03/09 06:18:23;;;;;;;0.30;0.10;;;-3.20;99.90;;;;;;5069219;28;20242;-81
2022/03/09 06:20:51;;;;;;;0.30;0.28;;;-3.00;99.90;;;;;;5068611;28;20557;-82
2022/03/09 06:23:19;;;;;;;0.30;0.20;;;-2.90;99.90;;;;;;5068711;28;20241;-85
2022/03/09 06:25:46;;;;;;;0.30;0.10;;;-2.80;99.90;;;;;;5050346;28;20256;-84
2022/03/09 06:28:13;;;;;;;0.63;0.63;;;-2.80;99.90;;;;;;5070948;28;20644;-83
2022/03/09 06:30:41;;;;;;;0.30;0.20;;;-2.80;99.90;;;;;;5050402;28;20259;-83
2022/03/09 06:33:08;;;;;;;0.30;0.10;;;-2.70;99.90;;;;;;5049705;28;20283;-84
2022/03/09 06:35:35;;;;;;;0.30;0.10;;;-2.70;99.90;;;;;;5069174;28;20189;-82
2022/03/09 06:38:02;;;;;;;0.30;0.10;;;-2.50;99.90;;;;;;5062077;28;20205;-82
2022/03/09 06:40:30;;;;;;;0.30;0.10;;;-2.40;99.90;;;;;;5063932;28;20222;-82
2022/03/09 06:42:59;;;;;;;0.30;0.10;;;-2.30;99.90;;;;;;5069145;28;20259;-82
2022/03/09 06:45:26;;;;;;;0.30;0.10;;;-2.20;99.90;;;;;;5069120;28;20209;-82
2022/03/09 06:47:53;;;;;;;0.30;0.10;;;-2.00;99.90;;;;;;5064047;28;20206;-82
2022/03/09 06:50:20;;;;;;;0.30;0.10;;;-2.00;99.90;;;;;;5063963;28;20264;-84
2022/03/09 06:52:47;;;;;;;0.30;0.10;;;-2.00;99.90;;;;;;5067532;28;20660;-83
2022/03/09 06:55:14;;;;;;;1.35;0.65;;;-1.90;99.90;;;;;;5069058;28;20252;-83
2022/03/09 06:57:43;;;;;;;0.30;0.10;;;-1.70;99.90;;;;;;5054957;28;20206;-82
2022/03/09 07:00:12;;;;;;;0.30;0.10;;;-1.70;99.90;;;;;;5063051;28;20252;-83
2022/03/09 07:02:39;;;;;;;0.30;0.10;;;-1.60;99.90;;;;;;5056391;28;20234;-83
2022/03/09 07:05:07;;;;;;;0.30;0.10;;;-1.40;99.90;;;;;;5056326;28;20546;-84
2022/03/09 07:07:34;;;;;;;0.30;0.10;;;-1.30;99.90;;;;;;5063162;28;20419;-83
2022/03/09 07:10:02;;;;;;;0.30;0.10;;;-1.20;99.40;;;;;;5067647;28;20668;-82
2022/03/09 07:12:29;;;;;;;0.30;0.10;;;-1.00;99.20;;;;;;5060650;28;20197;-83
2022/03/09 07:14:57;;;;;;;1.95;1.70;;;-1.00;99.10;;;;;;5071293;28;20255;-83
2022/03/09 07:17:24;;;;;;;0.30;0.10;;;-0.90;99.70;;;;;;5065981;28;20269;-83
2022/03/09 07:19:51;;;;;;;0.30;0.10;;;-0.90;99.40;;;;;;5053975;28;20279;-83
2022/03/09 07:22:18;;;;;;;0.30;0.10;;;-0.80;99.10;;;;;;5070057;28;20206;-83
2022/03/09 07:24:45;;;;;;;0.40;0.28;;;-0.90;98.70;;;;;;5069408;28;20200;-83
2022/03/09 07:27:12;;;;;;;0.30;0.10;;;-0.90;99.20;;;;;;5075666;28;20202;-83
2022/03/09 07:29:39;;;;;;;0.30;0.10;;;-0.80;99.50;;;;;;5064529;28;20206;-85
2022/03/09 07:32:08;;;;;;;0.30;0.10;;;-0.60;99.70;;;;;;5070858;28;20251;-83
2022/03/09 07:34:36;;;;;;;1.20;1.20;;;-0.50;99.70;;;;;;5069379;28;20206;-84
2022/03/09 07:37:03;;;;;;;0.40;0.40;;;-0.30;99.20;;;;;;5070989;28;20211;-82
2022/03/09 07:39:31;;;;;;;0.30;0.10;;;-0.20;98.80;;;;;;5066217;28;20222;-85
2022/03/09 07:41:58;;;;;;;0.30;0.10;;;0.00;98.40;;;;;;5053854;28;20287;-85
2022/03/09 07:44:26;;;;;;;0.30;0.10;;;0.20;98.40;;;;;;5060692;28;20228;-86
2022/03/09 07:46:53;;;;;;;0.30;0.10;;;0.50;98.30;;;;;;5068334;28;20253;-86
2022/03/09 07:49:22;;;;;;;0.30;0.20;;;0.60;97.60;;;;;;5067802;28;20203;-84
2022/03/09 07:51:49;;;;;;;0.40;0.20;;;0.70;97.30;;;;;;5072558;28;20592;-86
2022/03/09 07:54:17;;;;;;;0.30;0.10;;;0.80;96.70;;;;;;5069571;28;20579;-85
2022/03/09 07:56:44;;;;;;;0.30;0.10;;;1.00;96.20;;;;;;5062345;28;20538;-85
2022/03/09 07:59:12;;;;;;;0.40;0.22;;;1.10;95.40;;;;;;5070681;28;20225;-85
2022/03/09 08:01:40;;;;;;;0.52;0.52;;;1.30;95.60;;;;;;5072295;28;20199;-84
2022/03/09 08:04:07;;;;;;;0.30;0.20;;;1.40;95.60;;;;;;5071683;28;20211;-84
2022/03/09 08:06:37;;;;;;;0.30;0.10;;;1.40;94.30;;;;;;5059505;28;20301;-85
2022/03/09 08:09:04;;;;;;;0.30;0.10;;;1.40;94.30;;;;;;5051384;28;20452;-85
2022/03/09 08:11:31;;;;;;;0.30;0.10;;;1.60;93.80;;;;;;5056108;28;20432;-86
2022/03/09 08:13:58;;;;;;;0.30;0.20;;;1.60;93.70;;;;;;5069695;28;20811;-88
2022/03/09 08:16:26;;;;;;;0.30;0.20;;;1.60;93.00;;;;;;5060335;28;20268;-91
2022/03/09 08:18:53;;;;;;;0.30;0.10;;;1.70;93.10;;;;;;5067387;28;20462;-87
2022/03/09 08:21:20;;;;;;;0.30;0.15;;;1.80;93.30;;;;;;5069641;28;20459;-85
2022/03/09 08:23:48;;;;;;;0.37;0.27;;;2.00;93.40;;;;;;5067892;28;20660;-87
2022/03/09 08:26:15;;;;;;;0.30;0.10;;;2.10;92.00;;;;;;5072025;28;20474;-88
2022/03/09 08:28:42;;;;;;;0.30;0.10;;;2.10;91.90;;;;;;5083343;28;20517;-84
2022/03/09 08:31:10;;;;;;;0.30;0.10;;;2.10;90.90;;;;;;5070879;28;20205;-93
2022/03/09 08:33:37;;;;;;;0.30;0.20;;;2.40;91.50;;;;;;5071137;28;20613;-84
2022/03/09 08:36:04;;;;;;;0.30;0.10;;;2.50;90.40;;;;;;5065735;28;20247;-89
2022/03/09 08:38:31;;;;;;;0.30;0.10;;;2.50;88.50;;;;;;5064376;28;20469;-87
2022/03/09 08:40:59;;;;;;;0.40;0.20;;;2.70;90.00;;;;;;5062781;28;20576;-89
2022/03/09 08:43:27;;;;;;;0.30;0.10;;;2.80;88.80;;;;;;5062370;28;20542;-92
2022/03/09 08:45:54;;;;;;;0.30;0.10;;;2.90;88.40;;;;;;5061199;28;20463;-86
2022/03/09 08:48:21;;;;;;;1.40;1.40;;;3.00;87.50;;;;;;5070305;28;20459;-85
2022/03/09 08:50:48;;;;;;;0.40;0.40;;;3.00;85.90;;;;;;5054035;28;20452;-86
2022/03/09 08:53:16;;;;;;;0.30;0.10;;;3.20;83.40;;;;;;5050643;28;20445;-85
2022/03/09 08:55:42;;;;;;;2.00;1.80;;;3.30;82.80;;;;;;5051791;28;20532;-86
2022/03/09 08:58:11;;;;;;;0.30;0.20;;;3.30;82.80;;;;;;5049936;28;20989;-87
2022/03/09 09:00:38;;;;;;;0.30;0.10;;;3.40;80.80;;;;;;5050465;28;20554;-87
2022/03/09 09:03:05;;;;;;;0.30;0.10;;;3.50;82.70;;;;;;5050293;28;20503;-86
2022/03/09 09:05:32;;;;;;;0.30;0.20;;;3.60;82.10;;;;;;5052418;28;20518;-84
2022/03/09 09:07:59;;;;;;;0.40;0.30;;;3.70;81.30;;;;;;5058244;28;20445;-85
2022/03/09 09:10:26;;;;;;;0.40;0.30;;;3.70;80.60;;;;;;5061143;28;20440;-86
2022/03/09 09:12:57;;;;;;;0.30;0.20;;;3.80;77.40;;;;;;5065415;28;20515;-86
2022/03/09 09:15:28;;;;;;;0.30;0.20;;;4.00;77.20;;;;;;5065399;28;20936;-84
2022/03/09 09:17:58;;;;;;;0.50;0.33;;;4.00;78.20;;;;;;5063118;28;20490;-84
2022/03/09 09:20:25;;;;;;;0.30;0.10;;;4.20;79.40;;;;;;5061212;28;20472;-84
2022/03/09 09:22:53;;;;;;;0.40;0.20;;;4.30;79.10;;;;;;5049742;28;20444;-84
2022/03/09 09:25:21;;;;;;;0.30;0.10;;;4.30;78.40;;;;;;5052854;28;20461;-86
2022/03/09 09:27:48;;;;;;;0.53;0.50;;;4.40;78.30;;;;;;5051566;28;20473;-84
2022/03/09 09:30:15;;;;;;;0.40;0.20;;;4.50;79.00;;;;;;5049288;28;20449;-85
2022/03/09 09:32:44;;;;;;;0.40;0.20;;;4.60;79.00;;;;;;5049792;28;20440;-86
2022/03/09 09:35:11;;;;;;;0.30;0.20;;;4.70;77.60;;;;;;5049926;28;20951;-87
2022/03/09 09:37:38;;;;;;;1.00;0.90;;;4.70;77.50;;;;;;5050318;28;20449;-85
2022/03/09 09:40:07;;;;;;;0.40;0.20;;;5.00;78.30;;;;;;5050207;28;20862;-85
2022/03/09 09:42:35;;;;;;;0.30;0.20;;;5.00;77.80;;;;;;5063808;28;20462;-85
2022/03/09 09:45:04;;;;;;;0.50;0.43;;;5.00;78.80;;;;;;5051208;28;20464;-85
2022/03/09 09:47:32;;;;;;;0.30;0.10;;;5.20;80.10;;;;;;5064058;28;20452;-86
2022/03/09 09:50:02;;;;;;;0.30;0.10;;;5.30;78.40;;;;;;5059248;28;20513;-84
2022/03/09 09:52:32;;;;;;;0.40;0.40;;;5.60;80.30;;;;;;5059718;28;20461;-86
2022/03/09 09:55:00;;;;;;;0.40;0.23;;;5.80;77.80;;;;;;5068369;28;20471;-86
2022/03/09 09:57:30;;;;;;;0.30;0.20;;;6.00;74.30;;;;;;5060630;28;20448;-86
2022/03/09 09:59:58;;;;;;;0.30;0.20;;;6.10;72.50;;;;;;5067614;28;20515;-85
2022/03/09 10:02:26;;;;;;;0.30;0.10;;;6.10;73.60;;;;;;5060866;28;20467;-84
2022/03/09 10:04:53;;;;;;;0.47;0.47;;;6.20;72.20;;;;;;5066509;28;20828;-85
2022/03/09 10:07:21;;;;;;;0.30;0.20;;;6.30;73.50;;;;;;5079790;28;20547;-85
2022/03/09 10:09:48;;;;;;;0.30;0.20;;;6.70;73.10;;;;;;5066449;28;20855;-84
2022/03/09 10:12:25;;;;;;;0.40;0.20;;;6.50;72.30;;;;;;5056538;28;20451;-84
2022/03/09 10:14:53;;;;;;;0.30;0.20;;;6.70;73.10;;;;;;5062640;28;20529;-86
2022/03/09 10:17:22;;;;;;;0.40;0.30;;;6.90;71.70;;;;;;5063256;28;20833;-86
2022/03/09 10:19:51;;;;;;;0.73;0.67;;;7.00;71.60;;;;;;5068359;28;20487;-87
2022/03/09 10:22:24;;;;;;;0.30;0.20;;;6.90;70.80;;;;;;5068061;28;20458;-85
2022/03/09 10:24:51;;;;;;;0.33;0.20;;;6.80;69.50;;;;;;5060133;28;21028;-85
2022/03/09 10:27:34;;;;;;;0.33;0.20;;;6.90;68.10;;;;;;5072555;28;20513;-86
2022/03/09 10:30:01;;;;;;;1.17;0.53;;;7.20;67.80;;;;;;5066855;28;20931;-85
2022/03/09 10:32:43;;;;;;;0.30;0.20;;;6.90;65.10;;;;;;5068474;28;21325;-86
2022/03/09 10:35:11;;;;;;;0.30;0.20;;;7.00;67.90;;;;;;5068756;28;20809;-85
2022/03/09 10:37:44;;;;;;;0.40;0.20;;;6.90;66.50;;;;;;5067181;28;20466;-85
2022/03/09 10:40:14;;;;;;;0.30;0.20;;;6.80;67.10;;;;;;5069212;28;20478;-86
2022/03/09 10:42:41;;;;;;;0.30;0.20;;;6.80;65.20;;;;;;5055209;28;20498;-86
2022/03/09 10:45:09;;;;;;;0.73;0.73;;;6.70;64.60;;;;;;5059221;28;20865;-85
2022/03/09 10:47:37;;;;;;;0.40;0.40;;;6.90;66.30;;;;;;5058336;28;20472;-84
2022/03/09 10:50:14;;;;;;;0.50;0.43;;;6.90;62.30;;;;;;5052502;28;20524;-85
2022/03/09 10:52:50;;;;;;;0.30;0.17;;;7.10;63.90;;;;;;5068923;28;20450;-84
2022/03/09 10:55:22;;;;;;;0.30;0.10;;;7.10;62.40;;;;;;5058540;28;20500;-86
2022/03/09 10:57:50;;;;;;;0.30;0.20;;;7.20;59.80;;;;;;5054132;28;20467;-86
2022/03/09 11:00:34;;;;;;;0.30;0.10;;;7.20;57.70;;;;;;5056720;28;20937;-87
2022/03/09 11:03:06;;;;;;;0.87;0.30;;;7.30;58.40;;;;;;5053469;28;20472;-84
2022/03/09 11:05:33;;;;;;;0.40;0.20;;;7.40;56.50;;;;;;5068589;28;20462;-85
2022/03/09 11:08:02;;;;;;;0.30;0.20;;;7.60;58.30;;;;;;5050209;28;20526;-86
2022/03/09 11:10:29;;;;;;;0.30;0.10;;;7.70;58.40;;;;;;5059729;28;20461;-86
2022/03/09 11:12:57;;;;;;;0.50;0.20;;;7.90;56.60;;;;;;5067587;28;20461;-86
2022/03/09 11:15:24;;;;;;;0.30;0.20;;;8.00;59.20;;;;;;5066628;28;20878;-86
2022/03/09 11:17:52;;;;;;;0.47;0.47;;;8.30;55.60;;;;;;5066797;28;20491;-85
2022/03/09 11:20:19;;;;;;;0.30;0.20;;;8.40;53.90;;;;;;5059623;28;20480;-85
2022/03/09 11:22:46;;;;;;;1.23;1.13;;;8.40;55.20;;;;;;5052629;28;20464;-87
2022/03/09 11:25:15;;;;;;;0.40;0.20;;;8.40;54.70;;;;;;5068671;28;20458;-86
2022/03/09 11:27:46;;;;;;;0.30;0.10;;;8.60;57.10;;;;;;5073409;28;21011;-86
2022/03/09 11:30:27;;;;;;;0.93;0.30;;;8.70;55.20;;;;;;5055763;28;20454;-85
2022/03/09 11:32:55;;;;;;;0.30;0.20;;;8.90;54.20;;;;;;5055532;28;20468;-85
2022/03/09 11:35:34;;;;;;;0.40;0.20;;;8.90;52.00;;;;;;5068626;28;20448;-84
2022/03/09 11:38:01;;;;;;;0.30;0.20;;;8.90;52.20;;;;;;5063331;28;20962;-87
2022/03/09 11:40:30;;;;;;;0.40;0.40;;;9.10;53.50;;;;;;5067850;28;20625;-86
2022/03/09 11:43:27;;;;;;;0.30;0.20;;;9.20;53.90;;;;;;5054501;28;20477;-88
2022/03/09 11:45:55;;;;;;;0.67;0.67;;;9.30;52.10;;;;;;5057925;28;20467;-87
2022/03/09 11:48:22;;;;;;;0.40;0.20;;;9.50;53.20;;;;;;5066298;28;20518;-86
2022/03/09 11:51:13;;;;;;;0.40;0.20;;;9.60;49.90;;;;;;5063902;28;20467;-85
2022/03/09 11:53:43;;;;;;;0.40;0.20;;;9.70;50.50;;;;;;5068137;28;20546;-85
2022/03/09 11:56:37;;;;;;;0.40;0.20;;;9.50;50.10;;;;;;5061781;28;20453;-86
2022/03/09 11:59:29;;;;;;;0.40;0.20;;;9.60;48.30;;;;;;5068189;28;20460;-84
2022/03/09 12:02:19;;;;;;;0.40;0.20;;;9.80;48.40;;;;;;5074734;28;21010;-86
2022/03/09 12:04:48;;;;;;;0.40;0.20;;;9.80;50.40;;;;;;5060796;28;20464;-84
2022/03/09 12:07:48;;;;;;;0.40;0.20;;;9.80;49.80;;;;;;5071073;28;20505;-86
2022/03/09 12:10:16;;;;;;;0.40;0.20;;;10.00;47.90;;;;;;5069536;28;20520;-85
2022/03/09 12:13:32;;;;;;;0.40;0.10;;;9.90;51.10;;;;;;5061990;28;20980;-86
2022/03/09 12:16:15;;;;;;;0.40;0.10;;;9.80;50.40;;;;;;5055872;28;20444;-86
2022/03/09 12:18:46;;;;;;;0.40;0.10;;;9.80;50.30;;;;;;5064689;28;20830;-86
2022/03/09 12:21:15;;;;;;;0.40;0.20;;;9.70;50.00;;;;;;5057511;28;21424;-84
2022/03/09 12:24:32;;;;;;;0.30;0.20;;;9.50;49.60;;;;;;5067138;28;20465;-86
2022/03/09 12:26:59;;;;;;;0.40;0.20;;;9.70;51.50;;;;;;5069398;28;20439;-85
2022/03/09 12:29:42;;;;;;;0.30;0.10;;;9.80;53.10;;;;;;5072260;28;20443;-85
2022/03/09 12:32:13;;;;;;;0.30;0.10;;;9.90;52.50;;;;;;5057619;28;20459;-85
2022/03/09 12:34:42;;;;;;;1.17;1.07;;;9.90;52.00;;;;;;5070441;28;20927;-86
2022/03/09 12:37:12;;;;;;;0.40;0.20;;;9.90;51.10;;;;;;5071280;28;20509;-86
2022/03/09 12:39:40;;;;;;;0.40;0.20;;;9.60;52.00;;;;;;5071452;28;20493;-87
2022/03/09 12:42:08;;;;;;;0.30;0.20;;;9.60;52.80;;;;;;5060959;28;20488;-86
2022/03/09 12:44:37;;;;;;;0.40;0.20;;;9.80;53.30;;;;;;5064463;28;20456;-85
2022/03/09 12:47:06;;;;;;;0.30;0.13;;;9.90;52.40;;;;;;5060337;28;20529;-85
2022/03/09 12:49:38;;;;;;;0.40;0.20;;;10.10;51.80;;;;;;5069787;28;20460;-84
2022/03/09 12:52:10;;;;;;;0.30;0.17;;;10.10;52.30;;;;;;5071070;28;20552;-84
2022/03/09 12:54:39;;;;;;;0.30;0.10;;;10.00;52.80;;;;;;5067750;28;20448;-85
2022/03/09 12:57:11;;;;;;;0.40;0.20;;;9.80;52.50;;;;;;5069097;28;20451;-84
2022/03/09 12:59:39;;;;;;;0.30;0.10;;;9.80;54.90;;;;;;5064417;28;20598;-86